createdAt,value
2024-01-14T00:00:03.530Z,1.84
2024-01-14T00:01:03.522Z,1.85
2024-01-14T00:02:03.486Z,1.84
2024-01-14T00:03:03.733Z,1.84
2024-01-14T00:04:03.610Z,1.84
2024-01-14T00:05:03.543Z,1.84
2024-01-14T00:06:03.900Z,1.82
2024-01-14T00:07:03.514Z,1.80
2024-01-14T00:08:03.508Z,1.82
2024-01-14T00:09:03.533Z,1.81
2024-01-14T00:10:03.443Z,1.82
2024-01-14T00:11:03.461Z,1.78
2024-01-14T00:12:03.536Z,1.78
2024-01-14T00:13:03.607Z,1.78
2024-01-14T00:14:03.426Z,1.80
2024-01-14T00:15:03.496Z,1.80
2024-01-14T00:16:03.405Z,1.80
2024-01-14T00:17:03.360Z,1.78
2024-01-14T00:18:03.467Z,1.78
2024-01-14T00:19:03.624Z,1.78
2024-01-14T00:20:03.448Z,1.78
2024-01-14T00:21:03.369Z,1.77
2024-01-14T00:22:03.424Z,1.78
2024-01-14T00:23:03.338Z,1.80
2024-01-14T00:24:03.391Z,1.81
2024-01-14T00:25:03.358Z,1.80
2024-01-14T00:26:03.275Z,1.78
2024-01-14T00:27:03.408Z,1.80
2024-01-14T00:28:03.341Z,1.80
2024-01-14T00:29:03.374Z,1.81
2024-01-14T00:30:03.361Z,1.81
2024-01-14T00:31:03.279Z,1.81
2024-01-14T00:32:03.214Z,1.81
2024-01-14T00:33:03.368Z,1.81
2024-01-14T00:34:03.397Z,1.84
2024-01-14T00:35:03.334Z,1.84
2024-01-14T00:36:03.188Z,1.84
2024-01-14T00:37:03.248Z,1.85
2024-01-14T00:38:03.189Z,1.84
2024-01-14T00:39:03.218Z,1.87
2024-01-14T00:40:03.116Z,1.85
2024-01-14T00:41:03.130Z,1.87
2024-01-14T00:42:03.108Z,1.87
2024-01-14T00:43:03.196Z,1.85
2024-01-14T00:44:03.236Z,1.85
2024-01-14T00:45:03.246Z,1.85
2024-01-14T00:46:03.040Z,1.85
2024-01-14T00:47:03.013Z,1.84
2024-01-14T00:48:03.279Z,1.84
2024-01-14T00:49:03.167Z,1.84
2024-01-14T00:50:03.266Z,1.84
2024-01-14T00:51:03.011Z,1.82
2024-01-14T00:52:03.058Z,1.81
2024-01-14T00:53:02.948Z,1.81
2024-01-14T00:54:02.958Z,1.78
2024-01-14T00:55:03.007Z,1.78
2024-01-14T00:56:02.912Z,1.75
2024-01-14T00:57:02.966Z,1.73
2024-01-14T00:58:02.978Z,1.74
2024-01-14T00:59:02.954Z,1.74
2024-01-14T01:00:03.036Z,1.74
2024-01-14T01:01:02.944Z,1.73
2024-01-14T01:02:02.884Z,1.74
2024-01-14T01:03:03.001Z,1.75
2024-01-14T01:04:03.003Z,1.75
2024-01-14T01:05:02.848Z,1.75
2024-01-14T01:06:02.835Z,1.75
2024-01-14T01:07:02.805Z,1.77
2024-01-14T01:08:02.885Z,1.75
2024-01-14T01:09:02.849Z,1.75
2024-01-14T01:10:02.795Z,1.75
2024-01-14T01:11:02.769Z,1.75
2024-01-14T01:12:02.853Z,1.77
2024-01-14T01:13:02.742Z,1.77
2024-01-14T01:14:02.776Z,1.77
2024-01-14T01:15:02.823Z,1.75
2024-01-14T01:16:02.698Z,1.77
2024-01-14T01:17:02.689Z,1.77
2024-01-14T01:18:02.899Z,1.75
2024-01-14T01:19:02.847Z,1.77
2024-01-14T01:20:02.747Z,1.75
2024-01-14T01:21:02.803Z,1.77
2024-01-14T01:22:02.652Z,1.77
2024-01-14T01:23:02.690Z,1.78
2024-01-14T01:24:02.722Z,1.78
2024-01-14T01:25:02.668Z,1.80
2024-01-14T01:26:02.647Z,1.81
2024-01-14T01:27:02.677Z,1.80
2024-01-14T01:28:02.647Z,1.80
2024-01-14T01:29:02.978Z,1.81
2024-01-14T01:30:02.697Z,1.81
2024-01-14T01:31:02.636Z,1.81
2024-01-14T01:32:07.782Z,1.81
2024-01-14T01:33:03.729Z,1.82
2024-01-14T01:34:02.730Z,1.82
2024-01-14T01:35:02.746Z,1.82
2024-01-14T01:36:02.539Z,1.82
2024-01-14T01:37:02.507Z,1.81
2024-01-14T01:38:02.578Z,1.80
2024-01-14T01:39:02.545Z,1.81
2024-01-14T01:40:02.516Z,1.80
2024-01-14T01:41:02.571Z,1.78
2024-01-14T01:42:02.499Z,1.81
2024-01-14T01:43:02.468Z,1.80
2024-01-14T01:44:02.428Z,1.80
2024-01-14T01:45:02.460Z,1.80
2024-01-14T01:46:02.475Z,1.81
2024-01-14T01:47:02.441Z,1.78
2024-01-14T01:48:02.524Z,1.80
2024-01-14T01:49:02.458Z,1.81
2024-01-14T01:50:02.371Z,1.80
2024-01-14T01:51:02.450Z,1.81
2024-01-14T01:52:02.392Z,1.82
2024-01-14T01:53:02.312Z,1.81
2024-01-14T01:54:02.368Z,1.81
2024-01-14T01:55:02.316Z,1.78
2024-01-14T01:56:02.290Z,1.80
2024-01-14T01:57:02.374Z,1.80
2024-01-14T01:58:02.283Z,1.80
2024-01-14T01:59:02.272Z,1.82
2024-01-14T02:00:02.406Z,1.81
2024-01-14T02:01:02.234Z,1.81
2024-01-14T02:02:02.284Z,1.81
2024-01-14T02:03:02.364Z,1.81
2024-01-14T02:04:02.287Z,1.81
2024-01-14T02:05:02.377Z,1.80
2024-01-14T02:06:02.199Z,1.82
2024-01-14T02:07:02.182Z,1.81
2024-01-14T02:08:02.166Z,1.82
2024-01-14T02:09:02.339Z,1.84
2024-01-14T02:10:02.166Z,1.81
2024-01-14T02:11:02.140Z,1.81
2024-01-14T02:12:02.166Z,1.82
2024-01-14T02:13:02.126Z,1.82
2024-01-14T02:14:02.154Z,1.84
2024-01-14T02:15:02.248Z,1.82
2024-01-14T02:16:02.190Z,1.82
2024-01-14T02:17:02.188Z,1.84
2024-01-14T02:18:02.192Z,1.82
2024-01-14T02:19:02.170Z,1.82
2024-01-14T02:20:01.996Z,1.81
2024-01-14T02:21:02.067Z,1.82
2024-01-14T02:22:01.971Z,1.82
2024-01-14T02:23:02.042Z,1.84
2024-01-14T02:24:01.974Z,1.82
2024-01-14T02:25:01.949Z,1.84
2024-01-14T02:26:01.946Z,1.85
2024-01-14T02:27:01.960Z,1.85
2024-01-14T02:28:02.002Z,1.85
2024-01-14T02:29:01.903Z,1.87
2024-01-14T02:30:02.068Z,1.87
2024-01-14T02:31:01.938Z,1.87
2024-01-14T02:32:01.898Z,1.89
2024-01-14T02:33:02.084Z,1.89
2024-01-14T02:34:01.909Z,1.89
2024-01-14T02:35:01.880Z,1.87
2024-01-14T02:36:01.933Z,1.87
2024-01-14T02:37:01.850Z,1.89
2024-01-14T02:38:01.813Z,1.87
2024-01-14T02:39:01.804Z,1.84
2024-01-14T02:40:01.898Z,1.82
2024-01-14T02:41:01.758Z,1.82
2024-01-14T02:42:01.806Z,1.80
2024-01-14T02:43:01.758Z,1.80
2024-01-14T02:44:01.731Z,1.77
2024-01-14T02:45:01.920Z,1.78
2024-01-14T02:46:01.712Z,1.77
2024-01-14T02:47:01.700Z,1.78
2024-01-14T02:48:01.889Z,1.78
2024-01-14T02:49:01.814Z,1.78
2024-01-14T02:50:01.766Z,1.78
2024-01-14T02:51:01.720Z,1.77
2024-01-14T02:52:01.782Z,1.78
2024-01-14T02:53:01.659Z,1.78
2024-01-14T02:54:01.762Z,1.78
2024-01-14T02:55:01.662Z,1.77
2024-01-14T02:56:01.709Z,1.77
2024-01-14T02:57:01.670Z,1.77
2024-01-14T02:58:01.669Z,1.78
2024-01-14T02:59:01.601Z,1.77
2024-01-14T03:00:01.765Z,1.78
2024-01-14T03:01:01.754Z,1.78
2024-01-14T03:02:01.583Z,1.77
2024-01-14T03:03:01.830Z,1.78
2024-01-14T03:04:01.656Z,1.78
2024-01-14T03:05:01.647Z,1.77
2024-01-14T03:06:01.673Z,1.78
2024-01-14T03:07:01.637Z,1.78
2024-01-14T03:08:01.605Z,1.80
2024-01-14T03:09:01.589Z,1.78
2024-01-14T03:10:01.593Z,1.78
2024-01-14T03:11:01.543Z,1.77
2024-01-14T03:12:01.499Z,1.75
2024-01-14T03:13:01.490Z,1.74
2024-01-14T03:14:01.484Z,1.75
2024-01-14T03:15:01.534Z,1.75
2024-01-14T03:16:01.500Z,1.74
2024-01-14T03:17:01.488Z,1.75
2024-01-14T03:18:01.518Z,1.74
2024-01-14T03:19:01.606Z,1.73
2024-01-14T03:20:01.528Z,1.74
2024-01-14T03:21:01.398Z,1.73
2024-01-14T03:22:01.357Z,1.75
2024-01-14T03:23:01.369Z,1.74
2024-01-14T03:24:01.542Z,1.75
2024-01-14T03:25:01.324Z,1.75
2024-01-14T03:26:01.312Z,1.75
2024-01-14T03:27:01.350Z,1.74
2024-01-14T03:28:01.381Z,1.75
2024-01-14T03:29:01.367Z,1.77
2024-01-14T03:30:01.365Z,1.78
2024-01-14T03:31:01.383Z,1.77
2024-01-14T03:32:01.283Z,1.78
2024-01-14T03:33:01.297Z,1.77
2024-01-14T03:34:01.446Z,1.81
2024-01-14T03:35:01.211Z,1.80
2024-01-14T03:36:01.300Z,1.81
2024-01-14T03:37:01.198Z,1.82
2024-01-14T03:38:01.204Z,1.82
2024-01-14T03:39:01.258Z,1.84
2024-01-14T03:40:01.200Z,1.84
2024-01-14T03:41:01.147Z,1.85
2024-01-14T03:42:01.157Z,1.84
2024-01-14T03:43:01.167Z,1.85
2024-01-14T03:44:01.117Z,1.87
2024-01-14T03:45:01.226Z,1.87
2024-01-14T03:46:01.092Z,1.87
2024-01-14T03:47:01.083Z,1.89
2024-01-14T03:48:01.222Z,1.87
2024-01-14T03:49:01.231Z,1.91
2024-01-14T03:50:01.160Z,1.89
2024-01-14T03:51:01.085Z,1.91
2024-01-14T03:52:01.070Z,1.91
2024-01-14T03:53:01.114Z,1.91
2024-01-14T03:54:01.034Z,1.92
2024-01-14T03:55:01.010Z,1.91
2024-01-14T03:56:00.988Z,1.91
2024-01-14T03:57:01.161Z,1.91
2024-01-14T03:58:01.020Z,1.91
2024-01-14T03:59:00.943Z,1.91
2024-01-14T04:00:01.134Z,1.91
2024-01-14T04:01:00.963Z,1.93
2024-01-14T04:02:00.914Z,1.92
2024-01-14T04:03:01.001Z,1.92
2024-01-14T04:04:01.048Z,1.93
2024-01-14T04:05:01.001Z,1.92
2024-01-14T04:06:00.922Z,1.92
2024-01-14T04:07:00.981Z,1.92
2024-01-14T04:08:00.864Z,1.91
2024-01-14T04:09:00.889Z,1.91
2024-01-14T04:10:00.843Z,1.91
2024-01-14T04:11:00.834Z,1.92
2024-01-14T04:12:00.850Z,1.93
2024-01-14T04:13:00.898Z,1.95
2024-01-14T04:14:00.857Z,1.93
2024-01-14T04:15:00.910Z,1.93
2024-01-14T04:16:01.879Z,1.93
2024-01-14T04:17:00.858Z,1.93
2024-01-14T04:18:01.010Z,1.92
2024-01-14T04:19:00.878Z,1.93
2024-01-14T04:20:00.828Z,1.93
2024-01-14T04:21:00.790Z,1.93
2024-01-14T04:22:00.781Z,1.93
2024-01-14T04:23:00.715Z,1.95
2024-01-14T04:24:00.870Z,1.95
2024-01-14T04:25:00.647Z,1.93
2024-01-14T04:26:00.669Z,1.95
2024-01-14T04:27:00.787Z,1.93
2024-01-14T04:28:00.751Z,1.92
2024-01-14T04:29:00.659Z,1.95
2024-01-14T04:30:00.734Z,1.93
2024-01-14T04:31:00.689Z,1.93
2024-01-14T04:32:00.706Z,1.92
2024-01-14T04:33:00.778Z,1.91
2024-01-14T04:34:00.952Z,1.91
2024-01-14T04:35:00.632Z,1.89
2024-01-14T04:36:00.638Z,1.85
2024-01-14T04:37:00.576Z,1.84
2024-01-14T04:38:01.798Z,1.84
2024-01-14T04:39:00.539Z,1.82
2024-01-14T04:40:00.537Z,1.82
2024-01-14T04:41:00.529Z,1.82
2024-01-14T04:42:00.553Z,1.80
2024-01-14T04:43:00.536Z,1.78
2024-01-14T04:44:00.484Z,1.78
2024-01-14T04:45:00.673Z,1.77
2024-01-14T04:46:00.472Z,1.77
2024-01-14T04:47:00.488Z,1.77
2024-01-14T04:48:00.649Z,1.77
2024-01-14T04:49:00.604Z,1.77
2024-01-14T04:50:00.815Z,1.77
2024-01-14T04:51:00.382Z,1.75
2024-01-14T04:52:00.414Z,1.77
2024-01-14T04:53:00.464Z,1.78
2024-01-14T04:54:00.412Z,1.77
2024-01-14T04:55:00.347Z,1.78
2024-01-14T04:56:00.389Z,1.77
2024-01-14T04:57:00.352Z,1.78
2024-01-14T04:58:00.468Z,1.77
2024-01-14T04:59:00.331Z,1.77
2024-01-14T05:00:00.477Z,1.78
2024-01-14T05:01:00.347Z,1.78
2024-01-14T05:02:00.317Z,1.80
2024-01-14T05:03:00.328Z,1.80
2024-01-14T05:04:00.309Z,1.81
2024-01-14T05:05:00.257Z,1.82
2024-01-14T05:06:00.470Z,1.82
2024-01-14T05:07:00.295Z,1.82
2024-01-14T05:08:00.197Z,1.81
2024-01-14T05:09:00.298Z,1.82
2024-01-14T05:10:00.409Z,1.82
2024-01-14T05:11:00.257Z,1.81
2024-01-14T05:12:00.188Z,1.82
2024-01-14T05:13:00.223Z,1.82
2024-01-14T05:14:00.135Z,1.81
2024-01-14T05:15:00.205Z,1.81
2024-01-14T05:16:00.146Z,1.82
2024-01-14T05:17:00.194Z,1.82
2024-01-14T05:18:00.366Z,1.84
2024-01-14T05:19:00.404Z,1.82
2024-01-14T05:20:00.121Z,1.84
2024-01-14T05:21:00.150Z,1.82
2024-01-14T05:22:00.153Z,1.81
2024-01-14T05:23:00.032Z,1.85
2024-01-14T05:24:00.091Z,1.84
2024-01-14T05:25:00.096Z,1.82
2024-01-14T05:26:00.041Z,1.84
2024-01-14T05:27:00.141Z,1.84
2024-01-14T05:28:00.015Z,1.82
2024-01-14T05:28:59.989Z,1.82
2024-01-14T05:30:00.165Z,1.82
2024-01-14T05:31:00.020Z,1.82
2024-01-14T05:32:00.148Z,1.82
2024-01-14T05:32:59.995Z,1.81
2024-01-14T05:34:00.047Z,1.82
2024-01-14T05:34:59.912Z,1.82
2024-01-14T05:35:59.943Z,1.82
2024-01-14T05:36:59.931Z,1.82
2024-01-14T05:38:00.093Z,1.81
2024-01-14T05:38:59.936Z,1.82
2024-01-14T05:39:59.881Z,1.81
2024-01-14T05:40:59.940Z,1.82
2024-01-14T05:41:59.867Z,1.81
2024-01-14T05:42:59.851Z,1.82
2024-01-14T05:43:59.879Z,1.81
2024-01-14T05:44:59.884Z,1.80
2024-01-14T05:45:59.890Z,1.77
2024-01-14T05:46:59.816Z,1.78
2024-01-14T05:47:59.842Z,1.78
2024-01-14T05:48:59.894Z,1.78
2024-01-14T05:49:59.880Z,1.77
2024-01-14T05:50:59.771Z,1.77
2024-01-14T05:51:59.834Z,1.77
2024-01-14T05:52:59.758Z,1.77
2024-01-14T05:53:59.842Z,1.78
2024-01-14T05:54:59.699Z,1.78
2024-01-14T05:55:59.705Z,1.77
2024-01-14T05:56:59.850Z,1.78
2024-01-14T05:57:59.708Z,1.77
2024-01-14T05:58:59.718Z,1.75
2024-01-14T05:59:59.732Z,1.75
2024-01-14T06:00:59.748Z,1.75
2024-01-14T06:01:59.696Z,1.75
2024-01-14T06:02:59.702Z,1.77
2024-01-14T06:03:59.686Z,1.77
2024-01-14T06:04:59.765Z,1.78
2024-01-14T06:05:59.688Z,1.77
2024-01-14T06:06:59.787Z,1.77
2024-01-14T06:07:59.584Z,1.77
2024-01-14T06:08:59.626Z,1.77
2024-01-14T06:09:59.574Z,1.77
2024-01-14T06:10:59.550Z,1.75
2024-01-14T06:11:59.743Z,1.74
2024-01-14T06:12:59.609Z,1.74
2024-01-14T06:13:59.578Z,1.74
2024-01-14T06:14:59.621Z,1.74
2024-01-14T06:15:59.517Z,1.75
2024-01-14T06:16:59.455Z,1.75
2024-01-14T06:17:59.841Z,1.75
2024-01-14T06:18:59.595Z,1.75
2024-01-14T06:19:59.610Z,1.74
2024-01-14T06:20:59.470Z,1.77
2024-01-14T06:21:59.407Z,1.77
2024-01-14T06:22:59.392Z,1.77
2024-01-14T06:23:59.471Z,1.75
2024-01-14T06:24:59.474Z,1.77
2024-01-14T06:25:59.407Z,1.75
2024-01-14T06:26:59.430Z,1.75
2024-01-14T06:27:59.360Z,1.74
2024-01-14T06:28:59.339Z,1.74
2024-01-14T06:29:59.414Z,1.74
2024-01-14T06:30:59.517Z,1.74
2024-01-14T06:31:59.307Z,1.73
2024-01-14T06:32:59.540Z,1.73
2024-01-14T06:33:59.365Z,1.74
2024-01-14T06:34:59.457Z,1.73
2024-01-14T06:35:59.327Z,1.73
2024-01-14T06:36:59.254Z,1.73
2024-01-14T06:37:59.233Z,1.71
2024-01-14T06:38:59.310Z,1.71
2024-01-14T06:39:59.263Z,1.71
2024-01-14T06:41:07.081Z,1.69
2024-01-14T06:42:00.276Z,1.71
2024-01-14T06:42:59.207Z,1.73
2024-01-14T06:43:59.257Z,1.71
2024-01-14T06:44:59.200Z,1.71
2024-01-14T06:45:59.271Z,1.69
2024-01-14T06:46:59.156Z,1.71
2024-01-14T06:47:59.248Z,1.71
2024-01-14T06:48:59.432Z,1.71
2024-01-14T06:50:07.056Z,1.73
2024-01-14T06:51:00.269Z,1.71
2024-01-14T06:51:59.074Z,1.71
2024-01-14T06:52:59.134Z,1.69
2024-01-14T06:53:59.117Z,1.71
2024-01-14T06:54:59.049Z,1.67
2024-01-14T06:55:59.037Z,1.67
2024-01-14T06:56:59.122Z,1.69
2024-01-14T06:57:59.040Z,1.67
2024-01-14T06:58:59.061Z,1.69
2024-01-14T06:59:59.075Z,1.67
2024-01-14T07:00:59.182Z,1.67
2024-01-14T07:01:58.976Z,1.69
2024-01-14T07:02:58.979Z,1.67
2024-01-14T07:03:59.057Z,1.67
2024-01-14T07:04:58.932Z,1.67
2024-01-14T07:05:59.117Z,1.67
2024-01-14T07:06:58.945Z,1.66
2024-01-14T07:07:58.894Z,1.66
2024-01-14T07:08:58.942Z,1.66
2024-01-14T07:09:58.882Z,1.66
2024-01-14T07:10:58.876Z,1.67
2024-01-14T07:11:58.922Z,1.67
2024-01-14T07:12:58.864Z,1.67
2024-01-14T07:13:58.900Z,1.69
2024-01-14T07:14:58.920Z,1.69
2024-01-14T07:15:58.900Z,1.67
2024-01-14T07:16:58.842Z,1.67
2024-01-14T07:18:00.420Z,1.69
2024-01-14T07:18:59.008Z,1.69
2024-01-14T07:19:58.971Z,1.67
2024-01-14T07:20:58.812Z,1.66
2024-01-14T07:21:58.811Z,1.66
2024-01-14T07:23:39.804Z,1.66
2024-01-14T07:23:59.823Z,1.69
2024-01-14T07:24:58.856Z,1.69
2024-01-14T07:25:58.745Z,1.69
2024-01-14T07:26:58.800Z,1.67
2024-01-14T07:27:58.724Z,1.67
2024-01-14T07:28:58.693Z,1.67
2024-01-14T07:29:58.819Z,1.69
2024-01-14T07:30:58.887Z,1.66
2024-01-14T07:31:58.744Z,1.66
2024-01-14T07:32:58.724Z,1.64
2024-01-14T07:33:58.815Z,1.64
2024-01-14T07:34:58.608Z,1.66
2024-01-14T07:35:58.621Z,1.64
2024-01-14T07:36:58.603Z,1.66
2024-01-14T07:37:58.707Z,1.63
2024-01-14T07:38:58.584Z,1.64
2024-01-14T07:39:58.542Z,1.63
2024-01-14T07:40:58.641Z,1.64
2024-01-14T07:41:58.566Z,1.62
2024-01-14T07:42:58.525Z,1.64
2024-01-14T07:43:58.501Z,1.64
2024-01-14T07:44:58.539Z,1.64
2024-01-14T07:45:58.480Z,1.63
2024-01-14T07:46:58.569Z,1.62
2024-01-14T07:47:58.590Z,1.64
2024-01-14T07:48:58.569Z,1.63
2024-01-14T07:49:58.457Z,1.63
2024-01-14T07:50:58.599Z,1.62
2024-01-14T07:51:58.550Z,1.64
2024-01-14T07:52:58.438Z,1.63
2024-01-14T07:53:58.541Z,1.64
2024-01-14T07:54:58.444Z,1.62
2024-01-14T07:55:58.442Z,1.63
2024-01-14T07:56:58.391Z,1.62
2024-01-14T07:57:58.608Z,1.62
2024-01-14T07:58:58.440Z,1.62
2024-01-14T07:59:58.372Z,1.62
2024-01-14T08:01:02.203Z,1.62
2024-01-14T08:01:59.388Z,1.62
2024-01-14T08:02:58.523Z,1.62
2024-01-14T08:03:58.522Z,1.60
2024-01-14T08:04:58.381Z,1.62
2024-01-14T08:05:58.366Z,1.60
2024-01-14T08:06:58.274Z,1.57
2024-01-14T08:07:58.313Z,1.59
2024-01-14T08:08:58.286Z,1.60
2024-01-14T08:09:58.238Z,1.59
2024-01-14T08:10:58.227Z,1.59
2024-01-14T08:11:58.294Z,1.59
2024-01-14T08:12:58.334Z,1.59
2024-01-14T08:13:58.193Z,1.59
2024-01-14T08:14:58.326Z,1.60
2024-01-14T08:16:02.378Z,1.60
2024-01-14T08:16:59.183Z,1.60
2024-01-14T08:17:58.344Z,1.60
2024-01-14T08:18:58.244Z,1.62
2024-01-14T08:19:58.423Z,1.62
2024-01-14T08:20:58.185Z,1.63
2024-01-14T08:21:58.135Z,1.63
2024-01-14T08:22:58.127Z,1.63
2024-01-14T08:23:58.127Z,1.63
2024-01-14T08:24:58.161Z,1.63
2024-01-14T08:25:58.057Z,1.64
2024-01-14T08:26:58.155Z,1.64
2024-01-14T08:27:58.131Z,1.64
2024-01-14T08:29:00.104Z,1.63
2024-01-14T08:29:58.095Z,1.63
2024-01-14T08:30:58.120Z,1.64
2024-01-14T08:31:58.118Z,1.66
2024-01-14T08:32:58.149Z,1.64
2024-01-14T08:33:58.199Z,1.66
2024-01-14T08:34:58.174Z,1.67
2024-01-14T08:35:58.100Z,1.69
2024-01-14T08:36:58.069Z,1.67
2024-01-14T08:37:58.006Z,1.69
2024-01-14T08:38:58.163Z,1.67
2024-01-14T08:39:58.064Z,1.69
2024-01-14T08:40:57.940Z,1.71
2024-01-14T08:41:57.996Z,1.69
2024-01-14T08:42:57.894Z,1.71
2024-01-14T08:44:06.592Z,1.71
2024-01-14T08:44:57.930Z,1.67
2024-01-14T08:45:57.858Z,1.69
2024-01-14T08:46:57.891Z,1.69
2024-01-14T08:47:57.981Z,1.71
2024-01-14T08:48:57.953Z,1.71
2024-01-14T08:49:57.942Z,1.67
2024-01-14T08:50:57.878Z,1.67
2024-01-14T08:51:57.780Z,1.67
2024-01-14T08:52:57.773Z,1.69
2024-01-14T08:53:57.845Z,1.67
2024-01-14T08:54:57.814Z,1.66
2024-01-14T08:55:57.746Z,1.66
2024-01-14T08:56:57.841Z,1.67
2024-01-14T08:57:57.718Z,1.66
2024-01-14T08:58:57.954Z,1.66
2024-01-14T08:59:57.816Z,1.66
2024-01-14T09:00:57.912Z,1.66
2024-01-14T09:01:57.701Z,1.67
2024-01-14T09:02:57.786Z,1.67
2024-01-14T09:03:57.771Z,1.67
2024-01-14T09:04:57.686Z,1.67
2024-01-14T09:05:57.837Z,1.66
2024-01-14T09:06:57.800Z,1.69
2024-01-14T09:07:57.628Z,1.67
2024-01-14T09:08:57.768Z,1.67
2024-01-14T09:09:57.625Z,1.69
2024-01-14T09:10:57.758Z,1.69
2024-01-14T09:11:57.593Z,1.67
2024-01-14T09:12:57.650Z,1.63
2024-01-14T09:13:57.609Z,1.66
2024-01-14T09:14:57.654Z,1.63
2024-01-14T09:15:57.565Z,1.63
2024-01-14T09:16:57.535Z,1.63
2024-01-14T09:17:57.733Z,1.64
2024-01-14T09:18:57.777Z,1.64
2024-01-14T09:19:57.751Z,1.66
2024-01-14T09:20:57.647Z,1.64
2024-01-14T09:21:57.472Z,1.67
2024-01-14T09:22:57.548Z,1.67
2024-01-14T09:23:57.468Z,1.66
2024-01-14T09:24:57.494Z,1.66
2024-01-14T09:25:57.439Z,1.64
2024-01-14T09:26:57.451Z,1.66
2024-01-14T09:27:57.565Z,1.67
2024-01-14T09:28:57.394Z,1.66
2024-01-14T09:29:57.425Z,1.66
2024-01-14T09:30:57.479Z,1.66
2024-01-14T09:31:57.379Z,1.66
2024-01-14T09:32:57.483Z,1.67
2024-01-14T09:33:57.454Z,1.67
2024-01-14T09:34:57.425Z,1.67
2024-01-14T09:35:57.373Z,1.67
2024-01-14T09:36:57.430Z,1.69
2024-01-14T09:37:57.325Z,1.66
2024-01-14T09:38:57.416Z,1.69
2024-01-14T09:39:57.386Z,1.69
2024-01-14T09:40:57.279Z,1.67
2024-01-14T09:41:57.338Z,1.69
2024-01-14T09:42:57.286Z,1.67
2024-01-14T09:43:57.232Z,1.71
2024-01-14T09:44:57.371Z,1.69
2024-01-14T09:45:57.221Z,1.69
2024-01-14T09:46:57.233Z,1.69
2024-01-14T09:47:57.377Z,1.67
2024-01-14T09:48:57.394Z,1.66
2024-01-14T09:49:57.391Z,1.64
2024-01-14T09:50:57.226Z,1.64
2024-01-14T09:51:57.217Z,1.64
2024-01-14T09:52:57.128Z,1.66
2024-01-14T09:53:57.176Z,1.64
2024-01-14T09:54:57.212Z,1.64
2024-01-14T09:55:57.252Z,1.63
2024-01-14T09:56:57.192Z,1.63
2024-01-14T09:57:57.067Z,1.62
2024-01-14T09:58:57.133Z,1.60
2024-01-14T09:59:57.209Z,1.62
2024-01-14T10:00:57.210Z,1.60
2024-01-14T10:01:57.159Z,1.60
2024-01-14T10:02:57.044Z,1.63
2024-01-14T10:03:57.044Z,1.63
2024-01-14T10:04:57.123Z,1.67
2024-01-14T10:05:57.184Z,1.67
2024-01-14T10:06:57.221Z,1.71
2024-01-14T10:07:56.984Z,1.75
2024-01-14T10:08:58.665Z,1.80
2024-01-14T10:09:56.961Z,1.77
2024-01-14T10:10:58.541Z,1.74
2024-01-14T10:11:56.961Z,1.71
2024-01-14T10:12:56.960Z,1.71
2024-01-14T10:13:56.907Z,1.69
2024-01-14T10:14:56.955Z,1.67
2024-01-14T10:15:59.484Z,1.66
2024-01-14T10:16:56.963Z,1.64
2024-01-14T10:17:56.882Z,1.63
2024-01-14T10:18:57.128Z,1.63
2024-01-14T10:19:56.852Z,1.60
2024-01-14T10:20:56.938Z,1.60
2024-01-14T10:22:13.901Z,1.62
2024-01-14T10:22:57.831Z,1.59
2024-01-14T10:23:56.832Z,1.62
2024-01-14T10:24:56.809Z,1.59
2024-01-14T10:25:56.837Z,1.57
2024-01-14T10:26:56.805Z,1.59
2024-01-14T10:27:56.954Z,1.57
2024-01-14T10:28:56.744Z,1.59
2024-01-14T10:29:56.824Z,1.60
2024-01-14T10:30:56.831Z,1.60
2024-01-14T10:31:56.698Z,1.60
2024-01-14T10:33:18.650Z,1.62
2024-01-14T10:33:57.756Z,1.60
2024-01-14T10:34:56.860Z,1.59
2024-01-14T10:35:56.947Z,1.59
2024-01-14T10:36:56.678Z,1.60
2024-01-14T10:37:56.687Z,1.60
2024-01-14T10:38:56.730Z,1.57
2024-01-14T10:39:56.717Z,1.56
2024-01-14T10:40:56.660Z,1.57
2024-01-14T10:41:56.659Z,1.56
2024-01-14T10:42:56.684Z,1.56
2024-01-14T10:43:56.754Z,1.57
2024-01-14T10:44:56.719Z,1.56
2024-01-14T10:45:56.708Z,1.56
2024-01-14T10:46:56.563Z,1.55
2024-01-14T10:47:56.722Z,1.56
2024-01-14T10:48:56.654Z,1.56
2024-01-14T10:49:56.525Z,1.57
2024-01-14T10:50:56.613Z,1.55
2024-01-14T10:51:56.514Z,1.56
2024-01-14T10:52:56.512Z,1.57
2024-01-14T10:53:56.585Z,1.56
2024-01-14T10:54:56.525Z,1.56
2024-01-14T10:55:56.514Z,1.57
2024-01-14T10:56:56.484Z,1.55
2024-01-14T10:57:56.440Z,1.55
2024-01-14T10:58:56.449Z,1.57
2024-01-14T10:59:56.545Z,1.55
2024-01-14T11:00:56.644Z,1.53
2024-01-14T11:01:56.433Z,1.55
2024-01-14T11:02:56.582Z,1.53
2024-01-14T11:03:58.170Z,1.55
2024-01-14T11:04:56.383Z,1.53
2024-01-14T11:05:56.401Z,1.55
2024-01-14T11:06:56.433Z,1.53
2024-01-14T11:07:56.337Z,1.52
2024-01-14T11:08:56.368Z,1.55
2024-01-14T11:09:56.342Z,1.53
2024-01-14T11:10:56.302Z,1.52
2024-01-14T11:11:56.381Z,1.53
2024-01-14T11:12:56.479Z,1.57
2024-01-14T11:13:56.420Z,1.59
2024-01-14T11:14:56.288Z,1.57
2024-01-14T11:15:56.362Z,1.55
2024-01-14T11:16:56.277Z,1.56
2024-01-14T11:17:56.491Z,1.57
2024-01-14T11:18:56.320Z,1.56
2024-01-14T11:19:56.451Z,1.56
2024-01-14T11:21:07.649Z,1.56
2024-01-14T11:22:09.931Z,1.55
2024-01-14T11:22:58.600Z,1.55
2024-01-14T11:23:56.323Z,1.53
2024-01-14T11:24:56.195Z,1.53
2024-01-14T11:25:56.239Z,1.52
2024-01-14T11:26:56.468Z,1.53
2024-01-14T11:27:56.190Z,1.53
2024-01-14T11:28:56.106Z,1.49
2024-01-14T11:29:56.212Z,1.49
2024-01-14T11:30:56.208Z,1.49
2024-01-14T11:31:56.136Z,1.49
2024-01-14T11:32:56.225Z,1.52
2024-01-14T11:33:56.239Z,1.52
2024-01-14T11:34:56.884Z,1.53
2024-01-14T11:35:56.078Z,1.52
2024-01-14T11:36:56.050Z,1.52
2024-01-14T11:37:56.085Z,1.52
2024-01-14T11:38:56.158Z,1.53
2024-01-14T11:39:56.004Z,1.53
2024-01-14T11:40:56.046Z,1.53
2024-01-14T11:41:56.081Z,1.52
2024-01-14T11:42:56.024Z,1.52
2024-01-14T11:43:56.046Z,1.49
2024-01-14T11:44:55.973Z,1.49
2024-01-14T11:45:56.098Z,1.52
2024-01-14T11:46:58.141Z,1.49
2024-01-14T11:47:56.137Z,1.52
2024-01-14T11:48:57.558Z,1.48
2024-01-14T11:49:56.066Z,1.49
2024-01-14T11:50:55.984Z,1.52
2024-01-14T11:51:56.300Z,1.49
2024-01-14T11:52:55.942Z,1.48
2024-01-14T11:53:56.408Z,1.49
2024-01-14T11:54:55.879Z,1.52
2024-01-14T11:55:55.889Z,1.49
2024-01-14T11:56:56.105Z,1.49
2024-01-14T11:57:55.933Z,1.48
2024-01-14T11:58:55.771Z,1.52
2024-01-14T11:59:55.974Z,1.49
2024-01-14T12:00:55.957Z,1.46
2024-01-14T12:01:55.785Z,1.45
2024-01-14T12:02:55.900Z,1.45
2024-01-14T12:03:55.807Z,1.45
2024-01-14T12:05:00.480Z,1.46
2024-01-14T12:05:56.867Z,1.46
2024-01-14T12:06:55.947Z,1.46
2024-01-14T12:07:55.881Z,1.44
2024-01-14T12:08:55.694Z,1.42
2024-01-14T12:09:55.789Z,1.41
2024-01-14T12:10:55.683Z,1.41
2024-01-14T12:11:55.837Z,1.41
2024-01-14T12:12:55.709Z,1.41
2024-01-14T12:13:55.775Z,1.41
2024-01-14T12:14:56.022Z,1.41
2024-01-14T12:16:01.420Z,1.39
2024-01-14T12:16:56.637Z,1.39
2024-01-14T12:17:55.847Z,1.38
2024-01-14T12:18:55.710Z,1.38
2024-01-14T12:19:55.756Z,1.38
2024-01-14T12:20:55.727Z,1.39
2024-01-14T12:21:55.611Z,1.38
2024-01-14T12:22:55.523Z,1.39
2024-01-14T12:23:55.679Z,1.38
2024-01-14T12:24:55.523Z,1.39
2024-01-14T12:25:55.517Z,1.38
2024-01-14T12:26:55.620Z,1.38
2024-01-14T12:27:55.514Z,1.38
2024-01-14T12:28:55.512Z,1.38
2024-01-14T12:29:55.551Z,1.39
2024-01-14T12:30:55.726Z,1.39
2024-01-14T12:31:57.200Z,1.41
2024-01-14T12:32:55.494Z,1.42
2024-01-14T12:33:55.547Z,1.42
2024-01-14T12:34:55.506Z,1.44
2024-01-14T12:35:55.458Z,1.45
2024-01-14T12:36:55.824Z,1.44
2024-01-14T12:37:55.489Z,1.46
2024-01-14T12:38:55.442Z,1.45
2024-01-14T12:39:55.453Z,1.45
2024-01-14T12:40:56.434Z,1.45
2024-01-14T12:41:55.894Z,1.45
2024-01-14T12:42:55.406Z,1.45
2024-01-14T12:43:55.333Z,1.45
2024-01-14T12:44:55.666Z,1.46
2024-01-14T12:45:55.396Z,1.46
2024-01-14T12:46:57.646Z,1.48
2024-01-14T12:47:55.454Z,1.49
2024-01-14T12:49:01.754Z,1.48
2024-01-14T12:49:56.740Z,1.49
2024-01-14T12:50:55.277Z,1.53
2024-01-14T12:51:55.222Z,1.53
2024-01-14T12:52:55.227Z,1.55
2024-01-14T12:53:55.242Z,1.52
2024-01-14T12:54:55.224Z,1.55
2024-01-14T12:55:55.281Z,1.55
2024-01-14T12:56:55.201Z,1.55
2024-01-14T12:57:55.232Z,1.55
2024-01-14T12:58:55.151Z,1.53
2024-01-14T12:59:55.157Z,1.55
2024-01-14T13:00:55.272Z,1.55
2024-01-14T13:01:55.221Z,1.56
2024-01-14T13:02:55.206Z,1.56
2024-01-14T13:03:55.199Z,1.57
2024-01-14T13:04:55.098Z,1.57
2024-01-14T13:05:55.337Z,1.59
2024-01-14T13:06:58.678Z,1.55
2024-01-14T13:07:55.127Z,1.56
2024-01-14T13:08:55.040Z,1.55
2024-01-14T13:09:55.059Z,1.56
2024-01-14T13:10:55.083Z,1.57
2024-01-14T13:11:55.026Z,1.56
2024-01-14T13:12:55.113Z,1.56
2024-01-14T13:13:55.023Z,1.57
2024-01-14T13:14:55.007Z,1.59
2024-01-14T13:15:55.152Z,1.60
2024-01-14T13:16:55.176Z,1.62
2024-01-14T13:17:54.952Z,1.60